Gandhi — A8OK8 — position and weather

sailwx.info

Track history (hours):
 
Tides and Currents Weather Stations Pressure Air Temp Water Temp Dewpoint Dewpoint Depression Visibility Wind Speed Wind Dir Waves Ship Positions

Gandhi

Last reported at 2016-Jun-27 21:33 UTC. Time now 2016-Jun-27 22:20 UTC.
Position N 35°54' E 014°49'.

Length 176 m; draft 8.3 m.

Type: Tanker. MMSI: 636013645.

Date/timePositionNaut miles runAvg speedWind from/ knotsBaromVisibWave heightAir tempDewpointWater temp
2016-Jun-27 21:33N 35°54' E 014°49'0 0.0
2016-Jun-27 20:33N 35°54' E 014°49'0 0.0
2016-Jun-27 19:33N 35°54' E 014°49'0 0.0
2016-Jun-27 18:33N 35°54' E 014°49'0 0.0
2016-Jun-27 17:33N 35°54' E 014°49'0 0.0
2016-Jun-27 16:33N 35°54' E 014°49'0 0.1
2016-Jun-27 15:33N 35°54' E 014°48'0 0.0
2016-Jun-27 14:33N 35°54' E 014°48'3 3.3
2016-Jun-27 13:33N 35°57' E 014°47'1110.9
2016-Jun-27 12:33N 36°06' E 014°54'1110.9
2016-Jun-27 11:33N 36°16' E 015°00'1212.5
2016-Jun-27 10:33N 36°27' E 015°07'1313.1
2016-Jun-27 09:33N 36°39' E 015°14'1414.0
2016-Jun-27 08:32N 36°52' E 015°20'  
2016-Jun-25 04:04N 36°01' E 015°02'814.4
2016-Jun-25 03:33N 35°54' E 014°59'1714.0
2016-Jun-25 02:19N 35°39' E 014°48'1114.6
2016-Jun-25 01:33N 35°34' E 014°36'1414.4
2016-Jun-25 00:33N 35°26' E 014°21'1414.1
2016-Jun-24 23:33N 35°18' E 014°07'2914.2
2016-Jun-24 21:28N 34°60' E 013°38'  
Track history (hours):
 
Tides and Currents Weather Stations Pressure Air Temp Water Temp Dewpoint Dewpoint Depression Visibility Wind Speed Wind Dir Waves Ship Positions

Gandhi

Last reported at 2016-Jun-27 21:33 UTC. Time now 2016-Jun-27 22:20 UTC.
Position N 35°54' E 014°49'.

Length 176 m; draft 8.3 m.

Type: Tanker. MMSI: 636013645.

Date/timePositionNaut miles runAvg speedWind from/ knotsBaromVisibWave heightAir tempDewpointWater temp
2016-Jun-27 21:33N 35°54' E 014°49'0 0.0
2016-Jun-27 20:33N 35°54' E 014°49'0 0.0
2016-Jun-27 19:33N 35°54' E 014°49'0 0.0
2016-Jun-27 18:33N 35°54' E 014°49'0 0.0
2016-Jun-27 17:33N 35°54' E 014°49'0 0.0
2016-Jun-27 16:33N 35°54' E 014°49'0 0.1
2016-Jun-27 15:33N 35°54' E 014°48'0 0.0
2016-Jun-27 14:33N 35°54' E 014°48'3 3.3
2016-Jun-27 13:33N 35°57' E 014°47'1110.9
2016-Jun-27 12:33N 36°06' E 014°54'1110.9
2016-Jun-27 11:33N 36°16' E 015°00'1212.5
2016-Jun-27 10:33N 36°27' E 015°07'1313.1
2016-Jun-27 09:33N 36°39' E 015°14'1414.0
2016-Jun-27 08:32N 36°52' E 015°20'  
2016-Jun-25 04:04N 36°01' E 015°02'814.4
2016-Jun-25 03:33N 35°54' E 014°59'1714.0
2016-Jun-25 02:19N 35°39' E 014°48'1114.6
2016-Jun-25 01:33N 35°34' E 014°36'1414.4
2016-Jun-25 00:33N 35°26' E 014°21'1414.1
2016-Jun-24 23:33N 35°18' E 014°07'2914.2
2016-Jun-24 21:28N 34°60' E 013°38'  

Dump ship's entire track history